Time;durP1;ratioP1;P1;durP2;ratioP2;P2;SDS_P1;SDS_P2;PMS_P1;PMS_P2;Temp;Humidity;BMP_temperature;BMP_pressure;BME280_temperature;BME280_humidity;BME280_pressure;Samples;Min_cycle;Max_cycle;Signal;HPM_P1;HPM_P2
2021/11/17 02:28:25;;;;;;;76.12;30.50;;;;;;;-5.06;65.86;102239.12;1803960;76;21449;-55
2021/11/17 02:31:53;;;;;;;76.75;31.77;;;;;;;-5.24;65.47;102236.85;1782463;76;21209;-55
2021/11/17 02:35:16;;;;;;;77.80;29.00;;;;;;;-5.28;65.83;102236.47;1796572;78;21177;-55
2021/11/17 02:38:26;;;;;;;73.52;29.82;;;;;;;-5.25;66.08;102233.73;1780636;76;21278;-56
2021/11/17 02:42:13;;;;;;;72.65;31.82;;;;;;;-5.23;66.14;102225.25;1794566;78;21331;-54
2021/11/17 02:45:41;;;;;;;86.70;30.17;;;;;;;-5.22;66.20;102221.69;1797165;76;21220;-55
2021/11/17 02:49:40;;;;;;;84.37;32.73;;;;;;;-5.31;66.10;102225.86;1785128;78;21411;-54
2021/11/17 02:53:08;;;;;;;91.63;39.05;;;;;;;-5.32;66.37;102214.77;1693424;81;21248;-55
2021/11/17 02:56:53;;;;;;;86.17;31.77;;;;;;;-5.31;66.59;102212.52;1697062;80;21271;-55
2021/11/17 03:00:29;;;;;;;63.23;26.42;;;;;;;-5.39;66.44;102206.94;1784055;78;21330;-55
2021/11/17 03:04:05;;;;;;;76.97;29.90;;;;;;;-5.44;66.45;102200.33;1763256;78;21328;-54
2021/11/17 03:07:28;;;;;;;59.38;26.25;;;;;;;-5.53;66.55;102211.20;1718692;79;21239;-55
2021/11/17 03:10:42;;;;;;;78.50;31.17;;;;;;;-5.57;66.66;102200.17;1732717;79;21934;-57
2021/11/17 03:14:11;;;;;;;90.10;37.70;;;;;;;-5.56;66.83;102212.59;1720851;79;21354;-55
2021/11/17 03:17:27;;;;;;;89.95;38.83;;;;;;;-5.57;66.74;102208.18;1725376;80;21269;-55
2021/11/17 03:20:49;;;;;;;86.57;34.60;;;;;;;-5.58;66.64;102208.21;1786961;78;21333;-55
2021/11/17 03:24:30;;;;;;;110.68;41.80;;;;;;;-5.67;66.54;102206.59;1795517;77;21196;-55
2021/11/17 03:28:24;;;;;;;105.00;40.55;;;;;;;-5.76;66.67;102209.44;1693687;81;21951;-55
2021/11/17 03:31:56;;;;;;;73.07;31.10;;;;;;;-5.71;66.89;102212.91;1711421;80;21354;-55
2021/11/17 03:35:41;;;;;;;63.55;27.02;;;;;;;-5.66;66.81;102203.00;1737392;79;21256;-53
2021/11/17 03:38:57;;;;;;;74.25;27.15;;;;;;;-5.64;66.60;102211.86;1712182;81;21217;-54
2021/11/17 03:42:24;;;;;;;72.00;29.30;;;;;;;-5.62;66.55;102204.72;1730182;79;21232;-54
2021/11/17 03:45:55;;;;;;;75.17;27.13;;;;;;;-5.62;66.59;102202.05;1745973;77;21368;-54
2021/11/17 03:49:04;;;;;;;87.25;30.35;;;;;;;-5.62;66.41;102202.50;1736082;77;21445;-54
2021/11/17 03:52:37;;;;;;;82.33;28.40;;;;;;;-5.74;66.42;102195.60;1717063;79;21264;-54
2021/11/17 03:56:09;;;;;;;87.35;29.48;;;;;;;-5.74;66.58;102202.27;1740702;79;21183;-53
2021/11/17 03:59:34;;;;;;;89.67;29.80;;;;;;;-5.87;66.38;102195.47;1712603;81;21838;-56
2021/11/17 04:02:45;;;;;;;71.95;27.98;;;;;;;-5.90;66.85;102186.64;1721306;81;21331;-55
2021/11/17 04:06:07;;;;;;;73.25;27.67;;;;;;;-5.86;67.00;102182.55;1720302;81;21276;-54
2021/11/17 04:09:38;;;;;;;60.43;24.45;;;;;;;-5.80;67.04;102181.53;1726032;80;21220;-55
2021/11/17 04:12:54;;;;;;;54.13;24.25;;;;;;;-5.78;66.97;102176.59;1721515;81;21232;-55
2021/11/17 04:16:26;;;;;;;58.02;25.52;;;;;;;-5.76;66.83;102172.11;1726407;79;21217;-55
2021/11/17 04:19:55;;;;;;;48.55;23.32;;;;;;;-5.79;66.65;102177.95;1727617;80;21263;-56
2021/11/17 04:23:22;;;;;;;60.65;25.00;;;;;;;-5.81;66.91;102180.65;1725138;81;21454;-55
2021/11/17 04:26:39;;;;;;;55.92;23.87;;;;;;;-5.77;67.00;102181.00;1730090;80;21219;-56
2021/11/17 04:29:55;;;;;;;55.38;25.35;;;;;;;-5.75;66.92;102180.97;1724384;80;21355;-55
2021/11/17 04:33:11;;;;;;;81.57;35.70;;;;;;;-5.74;66.84;102182.27;1726306;80;21476;-55
2021/11/17 04:36:31;;;;;;;79.40;29.02;;;;;;;-5.79;66.61;102177.51;1732513;80;21251;-55
2021/11/17 04:40:09;;;;;;;76.45;30.35;;;;;;;-5.82;66.64;102172.72;1735421;80;21199;-55
2021/11/17 04:43:40;;;;;;;79.82;29.82;;;;;;;-5.87;66.29;102171.47;1733531;79;21392;-55
2021/11/17 04:47:02;;;;;;;68.00;29.12;;;;;;;-5.99;65.94;102177.02;1728978;78;21801;-55
2021/11/17 04:50:26;;;;;;;65.72;27.82;;;;;;;-6.06;66.07;102186.05;1717636;80;21181;-56
2021/11/17 04:53:44;;;;;;;;;;;;;;;-6.05;66.45;102174.91;1744337;79;21334;-55
2021/11/17 04:57:05;;;;;;;101.70;35.30;;;;;;;-6.00;66.75;102179.71;1729050;79;20599;-54
2021/11/17 05:01:02;;;;;;;133.20;48.38;;;;;;;-5.98;66.74;102178.80;1728774;80;21253;-55
2021/11/17 05:04:30;;;;;;;182.75;69.07;;;;;;;-6.00;66.70;102177.94;1728537;80;21358;-55
2021/11/17 05:07:42;;;;;;;133.82;53.55;;;;;;;-6.04;66.51;102170.88;1713150;80;21248;-57
2021/11/17 05:11:07;;;;;;;172.68;77.05;;;;;;;-6.16;66.31;102165.79;1712591;79;21319;-54
2021/11/17 05:14:31;;;;;;;142.43;62.58;;;;;;;-6.22;66.62;102168.57;1747440;78;21220;-56
2021/11/17 05:18:11;;;;;;;131.40;58.63;;;;;;;-6.18;66.79;102170.26;1738259;79;21289;-56
2021/11/17 05:21:31;;;;;;;116.22;49.65;;;;;;;-6.12;66.87;102170.17;1752164;79;21268;-55
2021/11/17 05:24:51;;;;;;;122.87;49.05;;;;;;;-6.12;66.76;102169.29;1749643;78;21269;-55
2021/11/17 05:28:10;;;;;;;98.87;39.78;;;;;;;-6.09;66.75;102169.23;1747360;78;21279;-55
2021/11/17 05:31:28;;;;;;;88.92;34.48;;;;;;;-6.09;66.77;102180.78;1708131;81;21291;-55
2021/11/17 05:34:58;;;;;;;91.10;35.38;;;;;;;-6.06;66.93;102184.72;1721865;80;21287;-55
2021/11/17 05:38:21;;;;;;;84.32;33.83;;;;;;;-5.95;66.84;102172.07;1716668;81;21408;-56
2021/11/17 05:41:50;;;;;;;80.03;30.67;;;;;;;-6.00;66.59;102177.94;1737560;79;21686;-55
2021/11/17 05:45:38;;;;;;;101.55;40.20;;;;;;;-6.05;66.64;102182.47;1688385;81;21826;-57
2021/11/17 05:48:56;;;;;;;91.30;35.52;;;;;;;-5.95;67.04;102177.41;1687453;81;21761;-56
2021/11/17 05:52:10;;;;;;;90.65;34.27;;;;;;;-5.78;67.16;102184.58;1691260;80;21257;-57
2021/11/17 05:55:42;;;;;;;108.07;38.23;;;;;;;-5.75;66.85;102181.86;1709752;80;21395;-56
2021/11/17 05:59:14;;;;;;;101.45;38.95;;;;;;;-5.73;66.82;102175.16;1722278;78;21220;-54
2021/11/17 06:02:54;;;;;;;96.67;41.37;;;;;;;-5.69;67.08;102181.73;1736461;79;21284;-55
2021/11/17 06:05:59;;;;;;;114.47;47.50;;;;;;;-5.54;67.14;102176.11;1739398;78;21586;-56
2021/11/17 06:09:03;;;;;;;121.70;45.98;;;;;;;-5.48;66.81;102171.08;1746305;78;21281;-53
2021/11/17 06:12:21;;;;;;;125.18;45.90;;;;;;;-5.45;67.02;102170.57;1711769;80;21278;-55
2021/11/17 06:15:26;;;;;;;148.85;52.40;;;;;;;-5.37;67.26;102167.73;1700746;81;21224;-56
2021/11/17 06:18:33;;;;;;;190.82;68.78;;;;;;;-5.21;67.43;102171.84;1704184;81;21224;-55
2021/11/17 06:21:39;;;;;;;97.70;46.73;;;;;;;-5.08;67.47;102168.89;1710228;81;21556;-55
2021/11/17 06:24:44;;;;;;;99.20;42.98;;;;;;;-4.99;67.36;102167.33;1697364;81;21227;-55
2021/11/17 06:27:52;;;;;;;135.70;51.70;;;;;;;-4.90;67.53;102175.13;1701157;80;21646;-56
2021/11/17 06:30:58;;;;;;;138.32;50.95;;;;;;;-4.75;67.63;102175.23;1715704;80;21838;-55
2021/11/17 06:34:06;;;;;;;117.80;42.50;;;;;;;-4.63;67.57;102168.28;1696310;82;21175;-54
2021/11/17 06:37:20;;;;;;;225.78;70.62;;;;;;;-4.57;67.46;102168.13;1697005;83;21399;-55
2021/11/17 06:40:29;;;;;;;192.22;66.70;;;;;;;-4.46;67.54;102161.17;1695526;82;21922;-56
2021/11/17 06:43:38;;;;;;;152.30;60.40;;;;;;;-4.32;67.46;102167.94;1692930;81;21235;-56
2021/11/17 06:46:44;;;;;;;129.27;48.58;;;;;;;-4.19;67.57;102156.47;1712905;81;21206;-55
2021/11/17 06:49:52;;;;;;;230.25;76.77;;;;;;;-4.03;67.60;102159.16;1735020;81;21354;-55
2021/11/17 06:53:00;;;;;;;175.10;65.87;;;;;;;-3.95;67.49;102153.14;1716615;80;21446;-54
2021/11/17 06:56:09;;;;;;;230.52;77.58;;;;;;;-3.83;67.73;102147.45;1733674;80;21211;-57
2021/11/17 06:59:15;;;;;;;177.80;61.63;;;;;;;-3.71;67.66;102153.82;1697331;83;21793;-56
2021/11/17 07:02:21;;;;;;;170.72;57.53;;;;;;;-3.61;67.69;102150.83;1719800;80;21784;-55
2021/11/17 07:05:27;;;;;;;180.45;59.93;;;;;;;-3.50;67.74;102149.17;1719827;80;21234;-55
2021/11/17 07:08:33;;;;;;;158.60;56.18;;;;;;;-3.45;67.70;102150.81;1712300;80;21203;-55
2021/11/17 07:11:39;;;;;;;122.87;50.10;;;;;;;-3.41;67.93;102143.57;1718025;80;21339;-57
2021/11/17 07:14:45;;;;;;;91.22;35.58;;;;;;;-3.25;68.21;102143.05;1743615;80;21228;-55
2021/11/17 07:17:51;;;;;;;99.22;34.27;;;;;;;-3.10;68.25;102140.38;1731694;80;21271;-55
2021/11/17 07:20:56;;;;;;;91.92;35.35;;;;;;;-3.01;68.36;102135.22;1739818;78;21229;-55
2021/11/17 07:24:03;;;;;;;89.20;35.30;;;;;;;-2.87;68.52;102133.83;1760989;78;21318;-56
2021/11/17 07:27:22;;;;;;;131.97;47.53;;;;;;;-2.69;68.67;102134.59;1729978;79;21208;-55
2021/11/17 07:30:25;;;;;;;122.47;49.40;;;;;;;-2.49;68.67;102136.14;1749856;78;21212;-54
2021/11/17 07:33:31;;;;;;;152.68;56.37;;;;;;;-2.29;68.75;102124.30;1757093;79;21255;-55
2021/11/17 07:36:36;;;;;;;147.17;53.95;;;;;;;-2.05;68.83;102126.15;1735291;78;21283;-55
2021/11/17 07:39:41;;;;;;;135.70;54.75;;;;;;;-1.82;68.71;102129.33;1736475;80;21741;-55
2021/11/17 07:42:47;;;;;;;109.67;43.45;;;;;;;-1.63;68.53;102127.28;1733115;80;21211;-56
2021/11/17 07:45:56;;;;;;;108.55;39.75;;;;;;;-1.47;68.35;102132.09;1757162;80;21702;-54
2021/11/17 07:49:02;;;;;;;97.72;34.55;;;;;;;-1.32;68.31;102132.84;1742355;79;21264;-56
2021/11/17 07:52:08;;;;;;;66.45;29.18;;;;;;;-1.16;68.20;102135.36;1698217;81;21300;-57
2021/11/17 07:55:19;;;;;;;77.27;33.80;;;;;;;-1.01;68.07;102141.01;1712157;82;21217;-56
2021/11/17 07:58:27;;;;;;;122.70;50.00;;;;;;;-0.87;68.05;102141.83;1686645;80;21243;-56
2021/11/17 08:01:34;;;;;;;129.00;48.23;;;;;;;-0.73;67.88;102147.53;1692248;81;21211;-56
2021/11/17 08:04:41;;;;;;;107.72;41.75;;;;;;;-0.61;67.76;102140.30;1707791;79;21757;-56
2021/11/17 08:07:47;;;;;;;104.55;44.10;;;;;;;-0.55;67.64;102145.41;1718682;81;21229;-56
2021/11/17 08:10:55;;;;;;;58.23;24.77;;;;;;;-0.46;67.71;102137.84;1733886;79;21205;-57
2021/11/17 08:14:01;;;;;;;55.17;22.58;;;;;;;-0.32;67.69;102137.30;1747546;80;21760;-56
2021/11/17 08:17:08;;;;;;;49.67;23.32;;;;;;;-0.17;67.67;102140.66;1769984;77;21795;-56
2021/11/17 08:20:21;;;;;;;53.63;20.82;;;;;;;-0.03;67.55;102144.52;1747060;79;21189;-54
2021/11/17 08:23:27;;;;;;;65.50;27.73;;;;;;;0.13;67.55;102134.45;1754197;79;21257;-55
2021/11/17 08:26:33;;;;;;;66.20;30.60;;;;;;;0.26;67.47;102133.83;1774569;76;21753;-55
2021/11/17 08:29:41;;;;;;;45.83;20.72;;;;;;;0.39;67.29;102128.77;1770205;78;21322;-56
2021/11/17 08:32:47;;;;;;;34.95;17.23;;;;;;;0.52;67.03;102126.81;1779517;79;21280;-57
2021/11/17 08:36:00;;;;;;;33.92;15.08;;;;;;;0.62;66.49;102121.39;1780979;76;21363;-56
2021/11/17 08:39:09;;;;;;;26.68;15.32;;;;;;;0.68;66.11;102120.25;1751709;81;21422;-56
2021/11/17 08:42:18;;;;;;;31.70;15.85;;;;;;;0.81;66.17;102127.67;1745003;77;21231;-56
2021/11/17 08:45:24;;;;;;;39.25;17.40;;;;;;;0.94;65.99;102124.81;1763700;78;21303;-56
2021/11/17 08:48:33;;;;;;;32.63;17.17;;;;;;;1.03;65.65;102108.19;1762442;77;21362;-54
2021/11/17 08:51:39;;;;;;;43.38;19.02;;;;;;;1.14;65.46;102119.33;1747938;79;21206;-56
2021/11/17 08:54:48;;;;;;;34.40;17.65;;;;;;;1.21;65.05;102110.02;1759172;79;21244;-55
2021/11/17 08:58:02;;;;;;;71.55;25.12;;;;;;;1.27;64.61;102109.70;1765884;77;21424;-57
2021/11/17 09:01:10;;;;;;;44.30;17.70;;;;;;;1.36;64.25;102103.85;1754051;79;21409;-56
2021/11/17 09:04:20;;;;;;;35.52;15.48;;;;;;;1.42;63.99;102099.52;1746111;79;21329;-56
2021/11/17 09:07:27;;;;;;;33.83;15.00;;;;;;;1.49;63.56;102100.09;1750581;77;21387;-55
2021/11/17 09:10:36;;;;;;;54.27;19.15;;;;;;;1.52;63.16;102092.70;1717444;81;21213;-55
2021/11/17 09:13:43;;;;;;;57.50;22.48;;;;;;;1.52;63.01;102083.25;1707583;80;21215;-56
2021/11/17 09:16:50;;;;;;;27.40;14.60;;;;;;;1.61;63.03;102083.74;1724344;81;21358;-56
2021/11/17 09:20:02;;;;;;;36.75;16.45;;;;;;;1.69;62.85;102081.53;1728195;80;21210;-56
2021/11/17 09:23:04;;;;;;;33.58;15.20;;;;;;;1.79;62.64;102070.67;1697857;80;21773;-56
2021/11/17 09:26:11;;;;;;;27.05;14.28;;;;;;;1.90;62.73;102070.98;1695726;82;21215;-55
2021/11/17 09:29:17;;;;;;;30.60;14.85;;;;;;;2.02;62.47;102073.92;1701605;82;21265;-56
2021/11/17 09:32:22;;;;;;;32.38;15.58;;;;;;;2.12;62.17;102058.10;1691976;82;21230;-55
2021/11/17 09:35:33;;;;;;;32.17;16.48;;;;;;;2.22;61.87;102066.12;1695940;82;21781;-56
2021/11/17 09:38:38;;;;;;;29.40;14.70;;;;;;;2.28;61.54;102059.92;1703196;82;21307;-55
2021/11/17 09:41:54;;;;;;;27.95;13.93;;;;;;;2.32;61.07;102066.89;1723365;81;21365;-55
2021/11/17 09:44:59;;;;;;;23.55;13.28;;;;;;;2.26;60.62;102065.88;1729047;80;21302;-55
2021/11/17 09:48:08;;;;;;;25.20;13.40;;;;;;;2.23;60.62;102059.75;1723495;79;21208;-56
2021/11/17 09:51:31;;;;;;;27.10;14.60;;;;;;;2.27;60.73;102057.27;1689219;80;21723;-56
2021/11/17 09:55:02;;;;;;;20.52;11.68;;;;;;;2.36;60.67;102054.94;1750072;79;21589;-55
2021/11/17 09:58:13;;;;;;;25.52;13.53;;;;;;;2.45;60.52;102050.41;1776919;78;21212;-56
2021/11/17 10:01:32;;;;;;;25.55;13.78;;;;;;;2.45;60.31;102045.47;1746529;78;21219;-55
2021/11/17 10:04:56;;;;;;;24.20;14.47;;;;;;;2.49;60.26;102033.55;1727339;78;21867;-55
2021/11/17 10:08:24;;;;;;;27.70;15.53;;;;;;;2.60;60.47;102029.78;1733568;78;21746;-56
2021/11/17 10:14:59;;;;;;;29.18;14.85;;;;;;;2.89;60.09;102026.30;1772984;77;21231;-55
2021/11/17 10:18:07;;;;;;;24.85;13.30;;;;;;;2.94;59.41;102017.44;1713373;79;21333;-56
2021/11/17 10:21:19;;;;;;;22.67;14.30;;;;;;;3.01;58.93;102017.00;1734095;79;21219;-55
2021/11/17 10:24:27;;;;;;;22.73;14.07;;;;;;;3.01;58.77;102017.00;1729914;80;21271;-55
2021/11/17 10:27:36;;;;;;;32.95;15.68;;;;;;;3.09;58.39;102007.11;1730817;79;21754;-54
2021/11/17 10:30:59;;;;;;;24.85;13.43;;;;;;;3.17;58.07;102014.77;1744295;79;21192;-55
2021/11/17 10:34:25;;;;;;;24.47;12.75;;;;;;;3.29;57.66;102014.93;1749911;78;21989;-55
2021/11/17 10:37:48;;;;;;;24.18;13.60;;;;;;;3.37;57.29;102006.35;1728953;79;21243;-55
2021/11/17 10:41:05;;;;;;;27.15;14.58;;;;;;;3.49;57.25;102002.44;1700367;83;21236;-55
2021/11/17 10:44:15;;;;;;;22.42;13.25;;;;;;;3.63;57.36;101997.56;1723095;80;21417;-55
2021/11/17 10:47:44;;;;;;;20.10;12.20;;;;;;;3.76;57.03;102002.64;1719142;79;21274;-54
2021/11/17 10:50:48;;;;;;;20.65;12.28;;;;;;;3.89;57.16;102002.25;1727513;81;21216;-55
2021/11/17 10:54:01;;;;;;;20.77;11.88;;;;;;;4.02;56.38;102000.54;1722250;79;21213;-56
2021/11/17 10:57:12;;;;;;;20.97;14.15;;;;;;;4.11;55.84;101991.83;1728002;80;21212;-56
2021/11/17 11:00:19;;;;;;;21.33;13.10;;;;;;;4.19;55.54;101984.97;1722732;79;21208;-57
2021/11/17 11:03:27;;;;;;;21.48;12.43;;;;;;;4.22;54.94;101991.56;1716485;79;21259;-56
2021/11/17 11:06:46;;;;;;;23.18;13.30;;;;;;;4.20;54.36;101989.42;1720994;80;21413;-57
2021/11/17 11:10:00;;;;;;;24.87;14.03;;;;;;;4.12;54.28;101990.38;1712179;81;21496;-54
2021/11/17 11:13:05;;;;;;;19.95;12.23;;;;;;;4.10;54.21;101990.98;1725670;79;21199;-55
2021/11/17 11:16:19;;;;;;;21.17;11.90;;;;;;;4.10;54.33;101984.68;1722100;81;21239;-55
2021/11/17 11:19:32;;;;;;;25.00;12.90;;;;;;;4.20;54.41;101975.02;1721844;79;21656;-55
2021/11/17 11:22:36;;;;;;;22.82;12.88;;;;;;;4.32;54.35;101974.23;1719447;79;21724;-55
2021/11/17 11:26:12;;;;;;;21.80;12.75;;;;;;;4.45;53.90;101967.95;1703747;81;21260;-57
2021/11/17 11:29:33;;;;;;;20.92;12.68;;;;;;;4.52;53.46;101964.33;1729409;80;22224;-56
2021/11/17 11:32:42;;;;;;;25.88;11.70;;;;;;;4.62;53.66;101954.63;1697995;82;21259;-56
2021/11/17 11:35:48;;;;;;;22.22;13.58;;;;;;;4.68;53.37;101950.67;1707644;82;21274;-56
2021/11/17 11:39:09;;;;;;;21.48;13.48;;;;;;;4.71;53.31;101945.04;1718963;81;21338;-57
2021/11/17 11:42:43;;;;;;;18.80;11.80;;;;;;;4.80;53.11;101938.52;1752855;79;21611;-56
2021/11/17 11:45:56;;;;;;;19.65;11.68;;;;;;;4.95;52.94;101946.98;1712316;80;21263;-57
2021/11/17 11:49:05;;;;;;;;;;;;;;;5.01;52.47;101941.66;1751539;80;21227;-56
2021/11/17 11:52:41;;;;;;;25.35;14.50;;;;;;;5.09;52.31;101937.95;1733849;79;20203;-56
2021/11/17 11:56:04;;;;;;;19.70;12.23;;;;;;;5.15;52.04;101931.62;1698987;82;21231;-58
2021/11/17 11:59:12;;;;;;;25.32;13.35;;;;;;;5.17;51.52;101935.59;1699058;82;21813;-56
2021/11/17 12:02:25;;;;;;;19.87;11.60;;;;;;;5.23;51.72;101935.16;1724655;80;21227;-57
2021/11/17 12:05:50;;;;;;;23.07;11.80;;;;;;;5.32;51.75;101931.81;1723764;81;21260;-57
2021/11/17 12:09:00;;;;;;;22.87;12.75;;;;;;;5.37;51.48;101929.66;1727920;78;21251;-58
2021/11/17 12:12:12;;;;;;;23.83;12.65;;;;;;;5.42;51.32;101936.50;1717551;80;21635;-56
2021/11/17 12:15:37;;;;;;;18.45;11.22;;;;;;;5.42;50.64;101934.30;1734919;79;21229;-57
2021/11/17 12:19:00;;;;;;;19.92;10.90;;;;;;;5.43;50.77;101940.09;1761640;78;21212;-58
2021/11/17 12:22:15;;;;;;;17.52;10.72;;;;;;;5.44;50.32;101925.05;1747949;79;21285;-58
2021/11/17 12:25:41;;;;;;;17.73;11.43;;;;;;;5.46;49.95;101930.38;1724009;80;21228;-57
2021/11/17 12:29:11;;;;;;;16.12;10.68;;;;;;;5.50;49.54;101922.41;1728875;78;21220;-57
2021/11/17 12:32:37;;;;;;;19.48;11.53;;;;;;;5.55;49.05;101920.26;1747009;79;21193;-58
2021/11/17 12:35:46;;;;;;;16.15;10.70;;;;;;;5.56;48.84;101912.48;1748809;80;21232;-56
2021/11/17 12:38:52;;;;;;;22.48;11.30;;;;;;;5.57;48.86;101916.45;1722372;80;21291;-57
2021/11/17 12:42:04;;;;;;;29.02;12.73;;;;;;;5.58;48.54;101912.73;1707490;79;21779;-55
2021/11/17 12:45:32;;;;;;;22.97;11.80;;;;;;;5.53;47.70;101900.47;1709454;80;21188;-56
2021/11/17 12:49:19;;;;;;;19.98;11.05;;;;;;;5.53;47.70;101900.47;1693344;82;22354;-56
2021/11/17 12:52:55;;;;;;;17.27;11.17;;;;;;;5.51;47.64;101907.38;1701930;81;22059;-56
2021/11/17 12:56:05;;;;;;;17.52;10.43;;;;;;;5.47;47.30;101907.69;1743634;78;21239;-57
2021/11/17 12:59:21;;;;;;;19.90;11.22;;;;;;;5.43;47.01;101897.52;1696919;81;21287;-55
2021/11/17 13:02:37;;;;;;;15.30;10.18;;;;;;;5.37;46.86;101895.72;1725215;79;21259;-56
2021/11/17 13:05:47;;;;;;;26.50;13.72;;;;;;;5.33;46.85;101890.09;1724054;81;21626;-55
2021/11/17 13:08:57;;;;;;;43.13;17.67;;;;;;;5.30;46.84;101890.31;1747343;77;21854;-56
2021/11/17 13:12:13;;;;;;;24.80;12.10;;;;;;;5.24;47.02;101893.45;1723648;78;21295;-56
2021/11/17 13:15:24;;;;;;;18.57;12.00;;;;;;;5.17;47.11;101890.80;1693150;81;21288;-56
2021/11/17 13:18:52;;;;;;;21.70;11.60;;;;;;;5.04;47.53;101892.12;1725416;81;21758;-57
2021/11/17 13:22:10;;;;;;;31.90;15.50;;;;;;;5.00;47.94;101894.64;1725405;81;21245;-55
2021/11/17 13:25:28;;;;;;;;;;;;;;;4.92;48.14;101896.12;1720407;80;21220;-55
2021/11/17 13:28:54;;;;;;;30.52;12.85;;;;;;;4.85;48.21;101890.73;1706713;81;20257;-55
2021/11/17 13:32:16;;;;;;;30.75;13.55;;;;;;;4.74;48.37;101890.58;1717505;81;21251;-56
2021/11/17 13:35:42;;;;;;;34.38;14.18;;;;;;;4.61;48.56;101890.53;1722837;82;21418;-56
2021/11/17 13:39:03;;;;;;;31.00;14.68;;;;;;;4.45;48.76;101883.89;1712494;81;21275;-55
2021/11/17 13:42:10;;;;;;;32.60;13.40;;;;;;;4.30;49.16;101886.23;1693081;81;21848;-56
2021/11/17 13:45:29;;;;;;;35.10;14.20;;;;;;;4.17;49.63;101882.56;1704770;81;21819;-56
2021/11/17 13:48:39;;;;;;;57.90;23.10;;;;;;;4.03;49.89;101881.70;1712098;80;21709;-55
2021/11/17 13:51:46;;;;;;;44.95;20.57;;;;;;;3.86;50.16;101879.20;1695063;82;21202;-56
2021/11/17 13:54:52;;;;;;;40.63;18.73;;;;;;;3.71;50.46;101881.53;1709923;81;21246;-56
2021/11/17 14:10:32;;;;;;;67.55;28.60;;;;;;;3.02;51.74;101882.16;1703017;81;21222;-55
2021/11/17 14:13:37;;;;;;;64.15;30.35;;;;;;;2.82;52.20;101880.24;1719207;81;21437;-55
2021/11/17 14:16:44;;;;;;;64.47;32.38;;;;;;;2.68;52.44;101881.53;1692805;81;21349;-55
2021/11/17 14:19:51;;;;;;;106.58;44.40;;;;;;;2.53;52.75;101884.64;1691398;81;21237;-54
2021/11/17 14:22:57;;;;;;;99.20;43.42;;;;;;;2.42;53.09;101884.86;1691893;80;21236;-56
2021/11/17 14:26:04;;;;;;;107.78;45.80;;;;;;;2.28;53.22;101888.82;1717930;81;21239;-55
2021/11/17 14:29:17;;;;;;;111.15;44.55;;;;;;;2.16;53.58;101888.14;1735793;80;21244;-54
2021/11/17 14:32:33;;;;;;;109.50;48.40;;;;;;;2.02;53.85;101881.29;1721301;80;21235;-55
2021/11/17 14:35:40;;;;;;;120.55;46.48;;;;;;;1.87;54.28;101882.16;1736406;79;21233;-56
2021/11/17 14:38:47;;;;;;;114.12;45.28;;;;;;;1.72;54.55;101881.16;1750623;79;21409;-55
2021/11/17 14:41:55;;;;;;;115.00;46.33;;;;;;;1.61;54.81;101891.66;1722258;78;21286;-56
2021/11/17 14:45:02;;;;;;;142.60;57.58;;;;;;;1.50;54.97;101886.85;1715258;81;21833;-56
2021/11/17 14:48:08;;;;;;;156.35;58.65;;;;;;;1.40;55.36;101888.75;1715738;82;21703;-56
2021/11/17 14:51:16;;;;;;;135.35;53.63;;;;;;;1.32;55.65;101885.58;1711567;81;21324;-55
2021/11/17 14:54:23;;;;;;;130.25;51.95;;;;;;;1.23;55.80;101877.98;1719611;81;21722;-56
2021/11/17 14:57:29;;;;;;;127.35;49.60;;;;;;;1.14;55.87;101875.27;1692162;82;21215;-56
2021/11/17 15:00:41;;;;;;;111.32;49.33;;;;;;;1.03;56.06;101874.95;1694667;83;21706;-56
2021/11/17 15:03:48;;;;;;;202.97;69.00;;;;;;;0.95;56.31;101879.02;1680493;81;21247;-56
2021/11/17 15:06:54;;;;;;;326.58;97.45;;;;;;;0.83;56.46;101883.20;1691394;80;21210;-55
2021/11/17 15:10:00;;;;;;;222.20;76.50;;;;;;;0.73;56.68;101879.22;1721506;78;21212;-54
2021/11/17 15:13:06;;;;;;;375.27;119.50;;;;;;;0.65;56.90;101882.77;1729744;81;21208;-55
2021/11/17 15:16:15;;;;;;;464.50;147.43;;;;;;;0.60;57.11;101884.84;1744238;81;21218;-54
2021/11/17 15:19:22;;;;;;;1567.53;492.37;;;;;;;0.55;57.28;101882.85;1696914;79;21236;-55
2021/11/17 15:22:27;;;;;;;1999.90;676.55;;;;;;;0.47;57.47;101883.70;1730064;82;21193;-55
2021/11/17 15:25:39;;;;;;;711.42;236.25;;;;;;;0.37;57.52;101882.39;1732082;82;21824;-55
2021/11/17 15:28:54;;;;;;;595.30;193.80;;;;;;;0.27;57.76;101877.05;1714177;81;21215;-53
2021/11/17 15:32:00;;;;;;;589.92;190.07;;;;;;;0.17;57.92;101875.77;1716480;80;21894;-55
2021/11/17 15:35:06;;;;;;;435.67;135.28;;;;;;;0.06;58.17;101878.56;1721554;82;21274;-57
2021/11/17 15:38:15;;;;;;;309.85;103.30;;;;;;;-0.05;58.51;101879.94;1738885;79;21883;-58
2021/11/17 15:41:28;;;;;;;378.95;115.25;;;;;;;-0.14;58.91;101876.34;1731004;81;21209;-58
2021/11/17 15:44:33;;;;;;;309.20;99.25;;;;;;;-0.20;59.34;101872.59;1712219;81;21244;-54
2021/11/17 15:47:39;;;;;;;307.50;95.50;;;;;;;-0.26;59.75;101882.30;1708380;83;21211;-59
2021/11/17 15:50:49;;;;;;;286.40;103.90;;;;;;;-0.31;60.17;101882.09;1733803;81;21224;-56
2021/11/17 15:53:55;;;;;;;391.42;118.65;;;;;;;-0.37;60.22;101887.30;1728981;81;21749;-60
2021/11/17 15:57:00;;;;;;;503.05;162.62;;;;;;;-0.47;60.38;101883.73;1723518;81;21765;-55
2021/11/17 16:00:05;;;;;;;432.92;133.00;;;;;;;-0.51;60.57;101887.52;1714921;82;21205;-57
2021/11/17 16:03:14;;;;;;;550.50;192.13;;;;;;;-0.57;60.61;101885.12;1757529;80;21291;-56
2021/11/17 16:06:22;;;;;;;419.30;151.30;;;;;;;-0.66;60.67;101889.54;1742664;80;21627;-56
2021/11/17 16:09:28;;;;;;;403.00;144.30;;;;;;;-0.73;60.72;101893.45;1724089;80;21287;-57
2021/11/17 16:12:36;;;;;;;712.80;289.57;;;;;;;-0.82;60.77;101888.00;1708674;80;21753;-55
2021/11/17 16:15:42;;;;;;;462.10;172.93;;;;;;;-0.92;60.96;101877.23;1711139;80;21389;-55
2021/11/17 16:18:48;;;;;;;607.83;248.62;;;;;;;-0.96;61.11;101883.70;1712618;81;21260;-55
2021/11/17 16:21:55;;;;;;;553.60;221.60;;;;;;;-1.04;61.16;101889.00;1716561;81;21816;-56
2021/11/17 16:28:27;;;;;;;522.05;200.20;;;;;;;-1.22;61.43;101879.05;1761350;78;21204;-55
2021/11/17 16:31:38;;;;;;;494.02;197.90;;;;;;;-1.27;61.70;101871.66;1737922;78;21220;-57
2021/11/17 16:34:44;;;;;;;475.50;185.00;;;;;;;-1.33;62.01;101872.77;1723812;81;21264;-61
2021/11/17 16:37:50;;;;;;;517.75;199.30;;;;;;;-1.34;62.21;101869.69;1718540;80;21216;-57
2021/11/17 16:40:59;;;;;;;524.48;203.88;;;;;;;-1.40;62.18;101875.33;1709701;82;21292;-57
2021/11/17 16:44:05;;;;;;;459.85;176.30;;;;;;;-1.42;62.26;101877.19;1714898;79;21761;-61
2021/11/17 16:47:12;;;;;;;461.17;177.68;;;;;;;-1.42;62.34;101874.97;1687733;81;21220;-57
2021/11/17 16:50:20;;;;;;;579.62;243.30;;;;;;;-1.45;62.34;101869.72;1699350;82;21255;-59
2021/11/17 16:53:27;;;;;;;589.73;250.05;;;;;;;-1.48;62.42;101866.72;1730014;81;21733;-57
2021/11/17 16:56:33;;;;;;;1002.90;455.25;;;;;;;-1.52;62.37;101864.62;1716862;80;21542;-58
2021/11/17 16:59:38;;;;;;;964.65;443.23;;;;;;;-1.56;62.43;101871.06;1739348;80;21653;-56
2021/11/17 17:02:43;;;;;;;904.83;419.85;;;;;;;-1.60;62.42;101861.83;1717100;79;21281;-56
2021/11/17 17:05:51;;;;;;;976.50;442.93;;;;;;;-1.68;62.48;101863.50;1717321;80;21276;-56
2021/11/17 17:08:58;;;;;;;888.05;398.15;;;;;;;-1.76;62.35;101862.08;1709100;80;21218;-57
2021/11/17 17:12:05;;;;;;;838.70;374.45;;;;;;;-1.84;62.53;101866.39;1708070;80;21227;-57
2021/11/17 17:15:14;;;;;;;951.45;431.70;;;;;;;-1.87;62.68;101857.61;1675979;82;21243;-57
2021/11/17 17:18:24;;;;;;;881.45;406.67;;;;;;;-1.91;62.73;101861.34;1720221;80;21263;-57
2021/11/17 17:21:31;;;;;;;861.43;390.90;;;;;;;-2.00;62.68;101864.39;1723298;80;21519;-57
2021/11/17 17:24:37;;;;;;;678.52;309.55;;;;;;;-2.06;62.90;101861.96;1719985;80;21209;-57
2021/11/17 17:27:43;;;;;;;679.08;304.32;;;;;;;-2.09;62.98;101864.28;1716047;80;21224;-56
2021/11/17 17:30:50;;;;;;;577.78;261.82;;;;;;;-2.14;62.93;101865.41;1754207;80;21216;-57